createdAt,value
2018-06-03T00:01:34.686Z,19.20
2018-06-03T00:04:03.534Z,19.12
2018-06-03T00:06:32.277Z,19.13
2018-06-03T00:09:01.022Z,19.06
2018-06-03T00:11:29.762Z,18.90
2018-06-03T00:13:58.478Z,18.84
2018-06-03T00:16:27.182Z,18.69
2018-06-03T00:18:55.897Z,18.52
2018-06-03T00:21:35.570Z,18.29
2018-06-03T00:24:04.325Z,18.21
2018-06-03T00:26:33.022Z,18.21
2018-06-03T00:29:01.718Z,18.10
2018-06-03T00:31:30.456Z,18.03
2018-06-03T00:33:59.161Z,17.94
2018-06-03T00:36:39.009Z,17.82
2018-06-03T00:39:08.897Z,17.80
2018-06-03T00:41:37.621Z,17.85
2018-06-03T00:44:06.367Z,17.79
2018-06-03T00:46:35.091Z,17.66
2018-06-03T00:49:03.916Z,17.56
2018-06-03T00:51:32.719Z,17.61
2018-06-03T00:54:01.439Z,17.67
2018-06-03T00:56:41.101Z,17.60
2018-06-03T00:59:09.819Z,17.57
2018-06-03T01:01:38.531Z,17.52
2018-06-03T01:04:07.278Z,17.44
2018-06-03T01:06:36.011Z,17.33
2018-06-03T01:09:05.960Z,17.27
2018-06-03T01:11:34.694Z,17.18
2018-06-03T01:14:03.501Z,17.04
2018-06-03T01:16:32.374Z,16.99
2018-06-03T01:19:01.124Z,16.88
2018-06-03T01:21:29.842Z,16.72
2018-06-03T01:23:58.533Z,16.73
2018-06-03T01:26:27.276Z,16.79
2018-06-03T01:28:55.965Z,16.77
2018-06-03T01:31:24.649Z,16.72
2018-06-03T01:33:53.405Z,16.70
2018-06-03T01:36:22.102Z,16.65
2018-06-03T01:38:50.813Z,16.61
2018-06-03T01:41:19.529Z,16.65
2018-06-03T01:43:48.301Z,16.57
2018-06-03T01:46:17.019Z,16.47
2018-06-03T01:48:45.754Z,16.44
2018-06-03T01:51:14.467Z,16.43
2018-06-03T01:53:43.174Z,16.39
2018-06-03T01:56:11.887Z,16.30
2018-06-03T01:58:40.586Z,16.23
2018-06-03T02:01:09.300Z,16.19
2018-06-03T02:03:38.063Z,16.16
2018-06-03T02:06:06.770Z,16.13
2018-06-03T02:08:35.498Z,16.14
2018-06-03T02:11:04.230Z,16.16
2018-06-03T02:13:32.972Z,16.17
2018-06-03T02:16:01.662Z,16.27
2018-06-03T02:18:30.618Z,16.23
2018-06-03T02:20:59.337Z,16.18
2018-06-03T02:23:28.057Z,16.19
2018-06-03T02:25:56.810Z,16.23
2018-06-03T02:28:25.708Z,16.20
2018-06-03T02:30:54.424Z,16.23
2018-06-03T02:33:23.171Z,16.18
2018-06-03T02:35:51.922Z,16.14
2018-06-03T02:38:20.660Z,16.12
2018-06-03T02:40:49.431Z,16.15
2018-06-03T02:43:18.146Z,16.24
2018-06-03T02:45:46.850Z,16.23
2018-06-03T02:48:15.566Z,16.26
2018-06-03T02:50:44.275Z,16.22
2018-06-03T02:53:12.973Z,16.28
2018-06-03T02:55:41.695Z,16.29
2018-06-03T02:58:10.390Z,16.41
2018-06-03T03:00:39.103Z,16.49
2018-06-03T03:03:07.824Z,16.47
2018-06-03T03:05:36.506Z,16.51
2018-06-03T03:08:05.231Z,16.50
2018-06-03T03:10:34.132Z,16.52
2018-06-03T03:13:02.847Z,16.54
2018-06-03T03:15:31.565Z,16.54
2018-06-03T03:18:00.285Z,16.57
2018-06-03T03:20:29.030Z,16.56
2018-06-03T03:22:57.723Z,16.58
2018-06-03T03:25:26.489Z,16.67
2018-06-03T03:27:55.245Z,16.81
2018-06-03T03:30:24.084Z,16.82
2018-06-03T03:32:52.823Z,17.21
2018-06-03T03:35:21.534Z,18.37
2018-06-03T03:37:50.264Z,19.62
2018-06-03T03:40:19.016Z,20.36
2018-06-03T03:42:47.739Z,20.78
2018-06-03T03:45:16.442Z,21.83
2018-06-03T03:47:45.199Z,22.61
2018-06-03T03:50:13.994Z,23.23
2018-06-03T03:52:42.701Z,23.98
2018-06-03T03:55:11.458Z,24.49
2018-06-03T03:57:40.262Z,25.40
2018-06-03T04:00:09.003Z,26.41
2018-06-03T04:02:37.786Z,27.12
2018-06-03T04:05:06.515Z,27.68
2018-06-03T04:07:35.245Z,28.06
2018-06-03T04:10:03.999Z,28.44
2018-06-03T04:12:32.699Z,28.39
2018-06-03T04:15:01.415Z,28.81
2018-06-03T04:17:30.146Z,28.69
2018-06-03T04:19:59.066Z,29.13
2018-06-03T04:22:27.805Z,29.25
2018-06-03T04:24:56.586Z,29.15
2018-06-03T04:27:25.299Z,29.81
2018-06-03T04:29:54.005Z,30.39
2018-06-03T04:32:22.734Z,30.74
2018-06-03T04:34:51.443Z,31.61
2018-06-03T04:37:20.164Z,31.49
2018-06-03T04:39:48.922Z,31.88
2018-06-03T04:42:17.631Z,32.02
2018-06-03T04:44:46.348Z,31.99
2018-06-03T04:47:15.117Z,32.19
2018-06-03T04:49:43.803Z,33.06
2018-06-03T04:52:12.502Z,32.76
2018-06-03T04:54:41.248Z,32.69
2018-06-03T04:57:09.956Z,32.61
2018-06-03T04:59:38.654Z,33.18
2018-06-03T05:02:07.499Z,32.83
2018-06-03T05:04:36.209Z,32.83
2018-06-03T05:07:04.919Z,32.88
2018-06-03T05:09:33.654Z,33.43
2018-06-03T05:12:02.350Z,33.71
2018-06-03T05:14:31.301Z,33.67
2018-06-03T05:17:00.227Z,33.41
2018-06-03T05:19:28.943Z,33.74
2018-06-03T05:21:57.652Z,34.40
2018-06-03T05:24:26.398Z,34.22
2018-06-03T05:26:55.129Z,35.13
2018-06-03T05:29:23.834Z,35.22
2018-06-03T05:31:52.561Z,35.85
2018-06-03T05:34:21.295Z,35.50
2018-06-03T05:36:50.050Z,35.04
2018-06-03T05:39:18.835Z,35.54
2018-06-03T05:41:47.563Z,35.31
2018-06-03T05:44:16.284Z,35.28
2018-06-03T05:46:45.030Z,35.03
2018-06-03T05:49:13.750Z,35.20
2018-06-03T05:51:42.488Z,36.23
2018-06-03T05:54:11.365Z,36.87
2018-06-03T05:56:40.085Z,37.52
2018-06-03T05:59:08.821Z,36.61
2018-06-03T06:01:37.602Z,36.70
2018-06-03T06:04:06.302Z,37.67
2018-06-03T06:06:35.020Z,38.34
2018-06-03T06:09:03.961Z,38.49
2018-06-03T06:11:32.725Z,38.58
2018-06-03T06:14:01.474Z,38.08
2018-06-03T06:16:30.248Z,36.64
2018-06-03T06:18:58.968Z,37.73
2018-06-03T06:21:27.708Z,39.23
2018-06-03T06:23:56.471Z,39.64
2018-06-03T06:26:25.229Z,39.32
2018-06-03T06:28:53.936Z,38.03
2018-06-03T06:31:22.656Z,39.46
2018-06-03T06:33:51.378Z,39.85
2018-06-03T06:36:20.062Z,39.43
2018-06-03T06:38:48.793Z,39.97
2018-06-03T06:41:17.489Z,39.39
2018-06-03T06:43:46.190Z,39.33
2018-06-03T06:46:14.942Z,39.48
2018-06-03T06:48:43.644Z,40.81
2018-06-03T06:51:12.400Z,40.98
2018-06-03T06:53:41.166Z,41.61
2018-06-03T06:56:10.054Z,41.10
2018-06-03T06:58:38.768Z,41.86
2018-06-03T07:01:07.559Z,42.48
2018-06-03T07:03:36.309Z,41.37
2018-06-03T07:06:05.012Z,40.93
2018-06-03T07:08:33.742Z,38.50
2018-06-03T07:11:02.599Z,40.38
2018-06-03T07:13:31.307Z,40.26
2018-06-03T07:16:00.040Z,40.99
2018-06-03T07:18:28.746Z,41.42
2018-06-03T07:20:57.459Z,39.62
2018-06-03T07:23:26.242Z,38.88
2018-06-03T07:25:54.987Z,38.27
2018-06-03T07:28:23.669Z,37.30
2018-06-03T07:30:52.390Z,36.69
2018-06-03T07:33:21.081Z,37.63
2018-06-03T07:35:49.799Z,38.22
2018-06-03T07:38:18.588Z,38.38
2018-06-03T07:40:47.303Z,38.15
2018-06-03T07:43:16.521Z,38.09
2018-06-03T07:45:45.290Z,39.55
2018-06-03T07:48:14.046Z,39.29
2018-06-03T07:50:42.771Z,39.91
2018-06-03T07:53:11.507Z,40.39
2018-06-03T07:55:40.225Z,41.07
2018-06-03T07:58:08.951Z,41.42
2018-06-03T08:00:37.682Z,41.34
2018-06-03T08:03:06.406Z,39.60
2018-06-03T08:05:35.095Z,39.20
2018-06-03T08:08:03.855Z,39.43
2018-06-03T08:10:32.555Z,39.54
2018-06-03T08:13:01.250Z,39.01
2018-06-03T08:15:29.983Z,37.27
2018-06-03T08:17:58.739Z,37.37
2018-06-03T08:20:28.028Z,37.35
2018-06-03T08:22:56.770Z,36.22
2018-06-03T08:25:25.483Z,36.30
2018-06-03T08:27:54.179Z,37.14
2018-06-03T08:30:22.964Z,38.36
2018-06-03T08:32:51.714Z,37.83
2018-06-03T08:35:20.454Z,38.79
2018-06-03T08:37:49.222Z,39.87
2018-06-03T08:40:18.471Z,40.14
2018-06-03T08:42:47.176Z,40.46
2018-06-03T08:45:15.918Z,40.15
2018-06-03T08:47:44.626Z,40.02
2018-06-03T08:50:13.338Z,40.07
2018-06-03T08:52:42.091Z,39.63
2018-06-03T08:55:10.884Z,40.08
2018-06-03T08:57:39.640Z,40.91
2018-06-03T09:00:08.386Z,40.99
2018-06-03T09:02:37.094Z,39.69
2018-06-03T09:05:06.223Z,38.20
2018-06-03T09:07:35.003Z,37.41
2018-06-03T09:10:03.715Z,37.36
2018-06-03T09:12:32.460Z,36.73
2018-06-03T09:15:01.194Z,37.51
2018-06-03T09:17:29.915Z,37.23
2018-06-03T09:19:58.651Z,35.84
2018-06-03T09:22:27.431Z,34.88
2018-06-03T09:24:56.167Z,33.60
2018-06-03T09:27:24.911Z,33.49
2018-06-03T09:29:53.689Z,32.76
2018-06-03T09:32:22.421Z,32.05
2018-06-03T09:34:51.138Z,32.50
2018-06-03T09:37:19.900Z,33.86
2018-06-03T09:39:48.629Z,34.19
2018-06-03T09:42:17.407Z,35.27
2018-06-03T09:44:46.269Z,36.26
2018-06-03T09:47:15.023Z,36.34
2018-06-03T09:49:43.783Z,35.70
2018-06-03T09:52:12.658Z,35.52
2018-06-03T09:54:41.519Z,36.32
2018-06-03T09:57:10.342Z,36.32
2018-06-03T09:59:39.286Z,35.33
2018-06-03T10:02:08.170Z,35.85
2018-06-03T10:04:36.895Z,37.75
2018-06-03T10:07:05.664Z,38.20
2018-06-03T10:09:34.414Z,37.40
2018-06-03T10:12:03.109Z,34.78
2018-06-03T10:14:31.865Z,34.22
2018-06-03T10:17:00.569Z,33.19
2018-06-03T10:19:29.277Z,32.35
2018-06-03T10:21:58.067Z,33.12
2018-06-03T10:24:26.782Z,34.90
2018-06-03T10:26:55.523Z,33.53
2018-06-03T10:29:24.321Z,32.62
2018-06-03T10:31:53.055Z,31.90
2018-06-03T10:34:21.827Z,31.09
2018-06-03T10:36:50.595Z,31.33
2018-06-03T10:39:19.459Z,31.30
2018-06-03T10:41:48.222Z,31.05
2018-06-03T10:44:17.010Z,30.27
2018-06-03T10:46:45.750Z,29.06
2018-06-03T10:49:14.486Z,28.83
2018-06-03T10:51:43.226Z,28.63
2018-06-03T10:54:12.047Z,28.19
2018-06-03T10:56:40.827Z,27.59
2018-06-03T10:59:09.677Z,27.00
2018-06-03T11:01:38.522Z,26.55
2018-06-03T11:04:07.335Z,26.42
2018-06-03T11:06:36.454Z,26.21
2018-06-03T11:09:06.871Z,25.82
2018-06-03T11:11:35.740Z,25.56
2018-06-03T11:14:04.534Z,25.42
2018-06-03T11:16:33.358Z,25.40
2018-06-03T11:19:02.175Z,25.51
2018-06-03T11:21:30.985Z,25.43
2018-06-03T11:23:59.814Z,25.33
2018-06-03T11:26:28.582Z,25.19
2018-06-03T11:28:57.382Z,25.33
2018-06-03T11:31:26.115Z,25.75
2018-06-03T11:33:54.829Z,26.21
2018-06-03T11:36:23.594Z,26.47
2018-06-03T11:38:52.342Z,26.56
2018-06-03T11:41:21.137Z,26.75
2018-06-03T11:43:49.944Z,27.14
2018-06-03T11:46:18.681Z,27.71
2018-06-03T11:48:47.407Z,28.22
2018-06-03T11:51:17.000Z,27.78
2018-06-03T11:53:45.795Z,27.72
2018-06-03T11:56:14.537Z,27.63
2018-06-03T11:58:52.486Z,27.47
2018-06-03T12:01:21.377Z,27.39
2018-06-03T12:03:50.155Z,27.21
2018-06-03T12:06:18.873Z,27.36
2018-06-03T12:08:47.629Z,27.94
2018-06-03T12:11:16.507Z,28.16
2018-06-03T12:13:45.262Z,28.53
2018-06-03T12:16:13.966Z,28.95
2018-06-03T12:18:42.714Z,29.84
2018-06-03T12:21:11.552Z,30.52
2018-06-03T12:23:40.258Z,30.97
2018-06-03T12:26:09.065Z,31.08
2018-06-03T12:28:37.830Z,31.07
2018-06-03T12:31:06.610Z,31.10
2018-06-03T12:33:35.376Z,30.44
2018-06-03T12:36:04.176Z,30.03
2018-06-03T12:38:32.994Z,29.53
2018-06-03T12:41:01.755Z,29.34
2018-06-03T12:43:30.505Z,28.87
2018-06-03T12:45:59.247Z,28.56
2018-06-03T12:48:27.994Z,28.65
2018-06-03T12:50:56.810Z,28.85
2018-06-03T12:53:25.582Z,29.39
2018-06-03T12:55:54.311Z,29.65
2018-06-03T12:58:23.090Z,29.58
2018-06-03T13:00:51.889Z,29.44
2018-06-03T13:03:20.636Z,29.25
2018-06-03T13:05:49.374Z,28.76
2018-06-03T13:08:18.120Z,28.98
2018-06-03T13:10:47.672Z,29.42
2018-06-03T13:13:16.462Z,29.72
2018-06-03T13:15:45.191Z,29.68
2018-06-03T13:18:13.935Z,29.69
2018-06-03T13:20:42.686Z,29.95
2018-06-03T13:23:11.403Z,29.86
2018-06-03T13:25:40.127Z,30.27
2018-06-03T13:28:08.870Z,30.72
2018-06-03T13:30:37.602Z,31.41
2018-06-03T13:33:06.490Z,31.69
2018-06-03T13:35:35.263Z,31.69
2018-06-03T13:38:03.986Z,31.91
2018-06-03T13:40:32.706Z,32.16
2018-06-03T13:43:01.474Z,31.74
2018-06-03T13:45:30.442Z,31.58
2018-06-03T13:47:59.542Z,31.69
2018-06-03T13:50:28.689Z,31.37
2018-06-03T13:52:58.046Z,31.55
2018-06-03T13:55:26.787Z,31.93
2018-06-03T13:57:55.579Z,31.83
2018-06-03T14:00:24.431Z,31.31
2018-06-03T14:02:53.156Z,31.49
2018-06-03T14:05:22.087Z,31.48
2018-06-03T14:07:50.857Z,31.49
2018-06-03T14:10:19.598Z,31.79
2018-06-03T14:12:51.648Z,31.77
2018-06-03T14:15:20.536Z,31.70
2018-06-03T14:17:49.299Z,31.65
2018-06-03T14:20:18.527Z,31.79
2018-06-03T14:22:47.298Z,31.91
2018-06-03T14:25:16.062Z,31.69
2018-06-03T14:27:44.790Z,31.22
2018-06-03T14:30:13.495Z,31.20
2018-06-03T14:32:42.269Z,31.21
2018-06-03T14:35:11.086Z,30.85
2018-06-03T14:37:39.811Z,30.71
2018-06-03T14:40:08.600Z,30.68
2018-06-03T14:42:37.321Z,30.62
2018-06-03T14:45:06.050Z,30.65
2018-06-03T14:47:34.802Z,30.73
2018-06-03T14:50:03.570Z,30.70
2018-06-03T14:52:32.295Z,30.65
2018-06-03T14:55:01.058Z,30.73
2018-06-03T14:57:29.812Z,30.69
2018-06-03T14:59:58.505Z,30.65
2018-06-03T15:02:27.242Z,30.73
2018-06-03T15:04:55.955Z,30.72
2018-06-03T15:07:24.669Z,30.66
2018-06-03T15:09:53.478Z,30.77
2018-06-03T15:12:22.203Z,30.97
2018-06-03T15:14:50.931Z,31.00
2018-06-03T15:17:19.703Z,31.11
2018-06-03T15:19:48.449Z,31.08
2018-06-03T15:22:17.963Z,31.00
2018-06-03T15:24:46.765Z,30.93
2018-06-03T15:27:15.510Z,30.90
2018-06-03T15:29:44.229Z,30.92
2018-06-03T15:32:13.016Z,31.00
2018-06-03T15:34:41.745Z,30.84
2018-06-03T15:37:10.492Z,30.59
2018-06-03T15:39:39.454Z,30.55
2018-06-03T15:42:08.411Z,30.59
2018-06-03T15:44:37.352Z,30.63
2018-06-03T15:47:06.160Z,30.74
2018-06-03T15:49:34.884Z,30.83
2018-06-03T15:52:03.615Z,30.75
2018-06-03T15:54:32.403Z,30.60
2018-06-03T15:57:01.162Z,30.50
2018-06-03T15:59:29.908Z,30.45
2018-06-03T16:01:58.663Z,30.50
2018-06-03T16:04:27.385Z,30.53
2018-06-03T16:06:56.382Z,30.45
2018-06-03T16:09:25.136Z,30.38
2018-06-03T16:11:53.893Z,30.39
2018-06-03T16:14:22.636Z,30.28
2018-06-03T16:16:51.412Z,30.15
2018-06-03T16:19:20.140Z,30.10
2018-06-03T16:21:48.857Z,30.01
2018-06-03T16:24:17.618Z,29.88
2018-06-03T16:26:46.528Z,29.75
2018-06-03T16:29:15.275Z,29.61
2018-06-03T16:31:44.043Z,29.61
2018-06-03T16:34:12.774Z,29.62
2018-06-03T16:36:41.512Z,29.47
2018-06-03T16:39:10.247Z,29.40
2018-06-03T16:41:39.021Z,29.34
2018-06-03T16:44:07.730Z,29.30
2018-06-03T16:46:36.463Z,29.26
2018-06-03T16:49:05.174Z,29.18
2018-06-03T16:51:34.003Z,28.99
2018-06-03T16:54:02.745Z,28.88
2018-06-03T16:56:31.520Z,28.75
2018-06-03T16:59:00.246Z,28.59
2018-06-03T17:01:28.995Z,28.48
2018-06-03T17:03:57.700Z,28.43
2018-06-03T17:06:26.498Z,28.32
2018-06-03T17:08:55.270Z,28.16
2018-06-03T17:11:23.992Z,27.95
2018-06-03T17:13:52.699Z,27.75
2018-06-03T17:16:21.441Z,27.57
2018-06-03T17:18:50.179Z,27.33
2018-06-03T17:21:18.890Z,27.17
2018-06-03T17:23:47.620Z,27.00
2018-06-03T17:26:16.398Z,26.77
2018-06-03T17:28:45.093Z,26.57
2018-06-03T17:31:13.844Z,26.34
2018-06-03T17:33:42.563Z,26.17
2018-06-03T17:36:11.276Z,26.00
2018-06-03T17:38:40.167Z,25.88
2018-06-03T17:41:08.892Z,25.81
2018-06-03T17:43:37.627Z,25.80
2018-06-03T17:46:06.405Z,25.80
2018-06-03T17:48:35.170Z,25.74
2018-06-03T17:51:03.963Z,25.62
2018-06-03T17:53:32.792Z,25.31
2018-06-03T17:56:01.614Z,25.41
2018-06-03T17:58:30.482Z,25.27
2018-06-03T18:00:59.243Z,25.16
2018-06-03T18:03:28.154Z,24.93
2018-06-03T18:06:00.448Z,24.82
2018-06-03T18:08:29.287Z,24.59
2018-06-03T18:11:03.612Z,24.42
2018-06-03T18:13:37.415Z,24.25
2018-06-03T18:16:12.456Z,24.17
2018-06-03T18:18:42.757Z,24.09
2018-06-03T18:21:15.174Z,23.94
2018-06-03T18:23:44.753Z,23.92
2018-06-03T18:26:15.527Z,23.90
2018-06-03T18:28:46.600Z,23.88
2018-06-03T18:31:22.430Z,23.78
2018-06-03T18:33:58.157Z,23.72
2018-06-03T18:36:35.017Z,23.64
2018-06-03T18:39:12.034Z,23.56
2018-06-03T18:41:49.130Z,23.51
2018-06-03T18:44:18.136Z,23.51
2018-06-03T18:46:46.907Z,23.50
2018-06-03T18:49:15.606Z,23.54
2018-06-03T18:51:44.312Z,23.50
2018-06-03T18:54:13.226Z,23.49
2018-06-03T18:56:41.954Z,23.53
2018-06-03T18:59:10.710Z,23.57
2018-06-03T19:01:39.630Z,23.58
2018-06-03T19:04:08.378Z,23.62
2018-06-03T19:06:37.168Z,23.63
2018-06-03T19:09:07.561Z,23.59
2018-06-03T19:11:36.388Z,23.53
2018-06-03T19:14:05.248Z,23.48
2018-06-03T19:16:34.158Z,23.46
2018-06-03T19:19:02.981Z,23.31
2018-06-03T19:21:31.715Z,23.24
2018-06-03T19:24:00.493Z,23.14
2018-06-03T19:26:29.202Z,23.07
2018-06-03T19:28:57.908Z,22.98
2018-06-03T19:31:26.668Z,22.88
2018-06-03T19:33:55.422Z,22.79
2018-06-03T19:36:24.118Z,22.77
2018-06-03T19:38:52.855Z,22.69
2018-06-03T19:41:21.642Z,22.64
2018-06-03T19:43:50.365Z,22.62
2018-06-03T19:46:19.323Z,22.59
2018-06-03T19:48:48.081Z,22.45
2018-06-03T19:51:16.882Z,22.29
2018-06-03T19:53:46.862Z,22.27
2018-06-03T19:56:15.598Z,22.17
2018-06-03T19:58:44.322Z,22.11
2018-06-03T20:01:13.082Z,22.14
2018-06-03T20:03:41.835Z,22.22
2018-06-03T20:06:10.562Z,22.27
2018-06-03T20:08:40.243Z,22.32
2018-06-03T20:11:08.983Z,22.44
2018-06-03T20:13:37.710Z,22.55
2018-06-03T20:16:06.479Z,22.63
2018-06-03T20:18:35.239Z,22.68
2018-06-03T20:21:03.966Z,22.69
2018-06-03T20:23:32.817Z,22.67
2018-06-03T20:26:01.581Z,22.74
2018-06-03T20:28:30.413Z,22.75
2018-06-03T20:30:59.258Z,22.73
2018-06-03T20:33:28.020Z,22.72
2018-06-03T20:35:56.758Z,22.65
2018-06-03T20:38:25.515Z,22.49
2018-06-03T20:40:54.334Z,22.40
2018-06-03T20:43:23.039Z,22.32
2018-06-03T20:45:51.848Z,22.29
2018-06-03T20:48:20.553Z,22.29
2018-06-03T20:50:49.306Z,22.42
2018-06-03T20:53:18.074Z,22.43
2018-06-03T20:55:46.780Z,22.42
2018-06-03T20:58:15.486Z,22.37
2018-06-03T21:00:44.209Z,22.29
2018-06-03T21:03:12.931Z,22.22
2018-06-03T21:05:41.653Z,22.03
2018-06-03T21:08:10.398Z,21.86
2018-06-03T21:10:39.165Z,21.78
2018-06-03T21:13:07.905Z,21.80
2018-06-03T21:15:36.661Z,21.86
2018-06-03T21:18:05.566Z,21.90
2018-06-03T21:20:34.413Z,21.92
2018-06-03T21:23:03.144Z,21.96
2018-06-03T21:25:31.833Z,21.97
2018-06-03T21:28:00.745Z,21.92
2018-06-03T21:30:29.512Z,21.90
2018-06-03T21:32:58.235Z,21.73
2018-06-03T21:35:27.018Z,21.59
2018-06-03T21:37:55.796Z,21.49
2018-06-03T21:40:24.558Z,21.37
2018-06-03T21:42:53.314Z,21.23
2018-06-03T21:45:22.085Z,21.20
2018-06-03T21:47:50.806Z,21.19
2018-06-03T21:50:19.535Z,21.19
2018-06-03T21:52:48.261Z,21.13
2018-06-03T21:55:16.949Z,21.10
2018-06-03T21:57:45.641Z,21.06
2018-06-03T22:00:15.102Z,20.99
2018-06-03T22:02:43.897Z,20.92
2018-06-03T22:05:12.730Z,20.89
2018-06-03T22:07:41.498Z,20.87
2018-06-03T22:10:10.234Z,20.82
2018-06-03T22:12:38.921Z,20.76
2018-06-03T22:15:07.652Z,20.71
2018-06-03T22:17:36.349Z,20.56
2018-06-03T22:20:05.196Z,20.41
2018-06-03T22:22:33.921Z,20.36
2018-06-03T22:25:02.638Z,20.35
2018-06-03T22:27:31.338Z,20.32
2018-06-03T22:30:00.087Z,20.28
2018-06-03T22:32:28.774Z,20.25
2018-06-03T22:34:57.463Z,20.21
2018-06-03T22:37:26.181Z,20.15
2018-06-03T22:39:55.005Z,19.98
2018-06-03T22:42:23.891Z,19.84
2018-06-03T22:44:52.619Z,19.84
2018-06-03T22:47:21.305Z,19.89
2018-06-03T22:49:49.993Z,19.92
2018-06-03T22:52:18.702Z,19.93
2018-06-03T22:54:47.393Z,19.80
2018-06-03T22:57:48.322Z,19.74
2018-06-03T23:00:22.515Z,19.53
2018-06-03T23:02:56.624Z,19.54
2018-06-03T23:05:25.359Z,19.51
2018-06-03T23:07:54.174Z,19.45
2018-06-03T23:10:23.009Z,19.42
2018-06-03T23:12:51.702Z,19.36
2018-06-03T23:15:20.423Z,19.37
2018-06-03T23:17:49.162Z,19.36
2018-06-03T23:20:17.945Z,19.31
2018-06-03T23:22:46.686Z,19.23
2018-06-03T23:25:15.450Z,19.22
2018-06-03T23:27:44.209Z,19.23
2018-06-03T23:30:12.945Z,19.12
2018-06-03T23:32:41.703Z,19.08
2018-06-03T23:35:10.415Z,19.04
2018-06-03T23:37:39.144Z,19.05
2018-06-03T23:40:07.881Z,18.96
2018-06-03T23:42:36.598Z,18.91
2018-06-03T23:45:05.310Z,18.90
2018-06-03T23:47:34.046Z,18.87
2018-06-03T23:50:02.769Z,18.84
2018-06-03T23:52:31.493Z,18.70
2018-06-03T23:55:00.253Z,18.60
2018-06-03T23:57:28.962Z,18.53
2018-06-03T23:59:57.835Z,18.54
